sensor_id;sensor_type;location;lat;lon;timestamp;temperature;humidity
27759;DHT22;15148;48.972;12.794;2022-11-06T00:04:46;7.40;99.90
27759;DHT22;15148;48.972;12.794;2022-11-06T00:09:47;7.40;99.90
27759;DHT22;15148;48.972;12.794;2022-11-06T00:14:49;7.30;99.90
27759;DHT22;15148;48.972;12.794;2022-11-06T00:19:51;7.40;99.90
27759;DHT22;15148;48.972;12.794;2022-11-06T00:24:52;7.40;99.90
27759;DHT22;15148;48.972;12.794;2022-11-06T00:29:54;7.40;99.90
27759;DHT22;15148;48.972;12.794;2022-11-06T00:34:56;7.40;99.90
27759;DHT22;15148;48.972;12.794;2022-11-06T00:39:58;7.40;99.90
27759;DHT22;15148;48.972;12.794;2022-11-06T00:45:00;7.40;99.90
27759;DHT22;15148;48.972;12.794;2022-11-06T00:50:02;7.40;99.90
27759;DHT22;15148;48.972;12.794;2022-11-06T00:55:04;7.40;99.90
27759;DHT22;15148;48.972;12.794;2022-11-06T01:00:06;7.40;99.90
27759;DHT22;15148;48.972;12.794;2022-11-06T01:05:08;7.50;99.90
27759;DHT22;15148;48.972;12.794;2022-11-06T01:10:10;7.50;99.90
27759;DHT22;15148;48.972;12.794;2022-11-06T01:15:11;7.50;99.90
27759;DHT22;15148;48.972;12.794;2022-11-06T01:20:13;7.50;99.90
27759;DHT22;15148;48.972;12.794;2022-11-06T01:25:15;7.60;99.90
27759;DHT22;15148;48.972;12.794;2022-11-06T01:30:17;7.60;99.90
27759;DHT22;15148;48.972;12.794;2022-11-06T01:35:18;7.60;99.90
27759;DHT22;15148;48.972;12.794;2022-11-06T01:40:20;7.60;99.90
27759;DHT22;15148;48.972;12.794;2022-11-06T01:45:28;7.60;99.90
27759;DHT22;15148;48.972;12.794;2022-11-06T01:50:32;7.60;99.90
27759;DHT22;15148;48.972;12.794;2022-11-06T01:55:37;7.60;99.90
27759;DHT22;15148;48.972;12.794;2022-11-06T02:00:40;7.60;99.90
27759;DHT22;15148;48.972;12.794;2022-11-06T02:05:43;7.60;99.90
27759;DHT22;15148;48.972;12.794;2022-11-06T02:10:45;7.60;99.90
27759;DHT22;15148;48.972;12.794;2022-11-06T02:15:52;7.60;99.90
27759;DHT22;15148;48.972;12.794;2022-11-06T02:31:24;7.60;99.90
27759;DHT22;15148;48.972;12.794;2022-11-06T02:36:37;7.60;99.90
27759;DHT22;15148;48.972;12.794;2022-11-06T02:41:43;7.60;99.90
27759;DHT22;15148;48.972;12.794;2022-11-06T02:46:49;7.60;99.90
27759;DHT22;15148;48.972;12.794;2022-11-06T02:51:56;7.60;99.90
27759;DHT22;15148;48.972;12.794;2022-11-06T02:57:04;7.60;99.90
27759;DHT22;15148;48.972;12.794;2022-11-06T03:02:10;7.60;99.90
27759;DHT22;15148;48.972;12.794;2022-11-06T03:07:31;7.60;99.90
27759;DHT22;15148;48.972;12.794;2022-11-06T03:13:10;7.60;99.90
27759;DHT22;15148;48.972;12.794;2022-11-06T03:18:29;7.50;99.90
27759;DHT22;15148;48.972;12.794;2022-11-06T03:28:57;7.50;99.90
27759;DHT22;15148;48.972;12.794;2022-11-06T03:34:09;7.50;99.90
27759;DHT22;15148;48.972;12.794;2022-11-06T03:39:18;7.50;99.90
27759;DHT22;15148;48.972;12.794;2022-11-06T03:44:26;7.50;99.90
27759;DHT22;15148;48.972;12.794;2022-11-06T03:49:34;7.50;99.90
27759;DHT22;15148;48.972;12.794;2022-11-06T03:54:54;7.50;99.90
27759;DHT22;15148;48.972;12.794;2022-11-06T04:00:00;7.50;99.90
27759;DHT22;15148;48.972;12.794;2022-11-06T04:05:16;7.50;99.90
27759;DHT22;15148;48.972;12.794;2022-11-06T04:10:21;7.40;99.90
27759;DHT22;15148;48.972;12.794;2022-11-06T04:15:49;7.50;99.90
27759;DHT22;15148;48.972;12.794;2022-11-06T04:21:13;7.50;99.90
27759;DHT22;15148;48.972;12.794;2022-11-06T04:26:29;7.50;99.90
27759;DHT22;15148;48.972;12.794;2022-11-06T04:31:45;7.50;99.90
27759;DHT22;15148;48.972;12.794;2022-11-06T04:37:08;7.50;99.90
27759;DHT22;15148;48.972;12.794;2022-11-06T04:42:27;7.40;99.90
27759;DHT22;15148;48.972;12.794;2022-11-06T04:47:30;7.40;99.90
27759;DHT22;15148;48.972;12.794;2022-11-06T04:52:32;7.40;99.90
27759;DHT22;15148;48.972;12.794;2022-11-06T04:57:35;7.40;99.90
27759;DHT22;15148;48.972;12.794;2022-11-06T05:02:36;7.50;99.90
27759;DHT22;15148;48.972;12.794;2022-11-06T05:07:38;7.50;99.90
27759;DHT22;15148;48.972;12.794;2022-11-06T05:12:40;7.50;99.90
27759;DHT22;15148;48.972;12.794;2022-11-06T05:17:42;7.50;99.90
27759;DHT22;15148;48.972;12.794;2022-11-06T05:22:44;7.50;99.90
27759;DHT22;15148;48.972;12.794;2022-11-06T05:28:03;7.50;99.90
27759;DHT22;15148;48.972;12.794;2022-11-06T05:33:07;7.50;99.90
27759;DHT22;15148;48.972;12.794;2022-11-06T05:38:09;7.50;99.90
27759;DHT22;15148;48.972;12.794;2022-11-06T05:43:11;7.50;99.90
27759;DHT22;15148;48.972;12.794;2022-11-06T05:48:13;7.50;99.90
27759;DHT22;15148;48.972;12.794;2022-11-06T05:53:15;7.50;99.90
27759;DHT22;15148;48.972;12.794;2022-11-06T05:58:17;7.50;99.90
27759;DHT22;15148;48.972;12.794;2022-11-06T06:03:20;7.50;99.90
27759;DHT22;15148;48.972;12.794;2022-11-06T06:08:22;7.50;99.90
27759;DHT22;15148;48.972;12.794;2022-11-06T06:13:24;7.50;99.90
27759;DHT22;15148;48.972;12.794;2022-11-06T06:18:25;7.50;99.90
27759;DHT22;15148;48.972;12.794;2022-11-06T06:23:27;7.50;99.90
27759;DHT22;15148;48.972;12.794;2022-11-06T06:28:29;7.50;99.90
27759;DHT22;15148;48.972;12.794;2022-11-06T06:33:31;7.40;99.90
27759;DHT22;15148;48.972;12.794;2022-11-06T06:38:33;7.40;99.90
27759;DHT22;15148;48.972;12.794;2022-11-06T06:43:35;7.40;99.90
27759;DHT22;15148;48.972;12.794;2022-11-06T06:48:37;7.40;99.90
27759;DHT22;15148;48.972;12.794;2022-11-06T06:53:38;7.40;99.90
27759;DHT22;15148;48.972;12.794;2022-11-06T06:58:40;7.40;99.90
27759;DHT22;15148;48.972;12.794;2022-11-06T07:03:42;7.40;99.90
27759;DHT22;15148;48.972;12.794;2022-11-06T07:08:44;7.50;99.90
27759;DHT22;15148;48.972;12.794;2022-11-06T07:13:46;7.50;99.90
27759;DHT22;15148;48.972;12.794;2022-11-06T07:18:48;7.50;99.90
27759;DHT22;15148;48.972;12.794;2022-11-06T07:23:49;7.50;99.90
27759;DHT22;15148;48.972;12.794;2022-11-06T07:28:51;7.60;99.90
27759;DHT22;15148;48.972;12.794;2022-11-06T07:33:53;7.60;99.90
27759;DHT22;15148;48.972;12.794;2022-11-06T07:38:56;7.70;99.90
27759;DHT22;15148;48.972;12.794;2022-11-06T07:43:58;7.80;99.90
27759;DHT22;15148;48.972;12.794;2022-11-06T07:49:00;7.80;99.90
27759;DHT22;15148;48.972;12.794;2022-11-06T07:54:02;7.90;99.90
27759;DHT22;15148;48.972;12.794;2022-11-06T07:59:04;7.90;99.90
27759;DHT22;15148;48.972;12.794;2022-11-06T08:04:06;7.90;99.90
27759;DHT22;15148;48.972;12.794;2022-11-06T08:09:09;7.90;99.90
27759;DHT22;15148;48.972;12.794;2022-11-06T08:14:10;8.00;99.90
27759;DHT22;15148;48.972;12.794;2022-11-06T08:19:12;8.10;99.90
27759;DHT22;15148;48.972;12.794;2022-11-06T08:24:14;8.20;99.90
27759;DHT22;15148;48.972;12.794;2022-11-06T08:29:22;8.20;99.90
27759;DHT22;15148;48.972;12.794;2022-11-06T08:34:24;8.40;99.90
27759;DHT22;15148;48.972;12.794;2022-11-06T08:39:26;8.40;99.90
27759;DHT22;15148;48.972;12.794;2022-11-06T08:44:27;8.40;99.90
27759;DHT22;15148;48.972;12.794;2022-11-06T08:49:29;8.40;99.90
27759;DHT22;15148;48.972;12.794;2022-11-06T08:54:31;8.40;99.90
27759;DHT22;15148;48.972;12.794;2022-11-06T08:59:33;8.50;99.90
27759;DHT22;15148;48.972;12.794;2022-11-06T09:04:34;8.50;99.90
27759;DHT22;15148;48.972;12.794;2022-11-06T09:09:41;8.50;99.90
27759;DHT22;15148;48.972;12.794;2022-11-06T09:14:43;8.60;99.90
27759;DHT22;15148;48.972;12.794;2022-11-06T09:19:45;8.70;99.90
27759;DHT22;15148;48.972;12.794;2022-11-06T09:24:47;8.60;99.90
27759;DHT22;15148;48.972;12.794;2022-11-06T09:30:04;8.70;99.90
27759;DHT22;15148;48.972;12.794;2022-11-06T09:35:07;8.80;99.90
27759;DHT22;15148;48.972;12.794;2022-11-06T09:40:20;8.80;99.90
27759;DHT22;15148;48.972;12.794;2022-11-06T09:45:25;8.80;99.90
27759;DHT22;15148;48.972;12.794;2022-11-06T09:50:33;8.80;99.90
27759;DHT22;15148;48.972;12.794;2022-11-06T09:55:40;9.00;99.90
27759;DHT22;15148;48.972;12.794;2022-11-06T10:00:43;9.20;99.90
27759;DHT22;15148;48.972;12.794;2022-11-06T10:05:51;9.40;99.90
27759;DHT22;15148;48.972;12.794;2022-11-06T10:11:05;9.60;99.90
27759;DHT22;15148;48.972;12.794;2022-11-06T10:21:50;9.80;99.90
27759;DHT22;15148;48.972;12.794;2022-11-06T10:26:55;9.90;99.90
27759;DHT22;15148;48.972;12.794;2022-11-06T10:37:39;10.10;99.90
27759;DHT22;15148;48.972;12.794;2022-11-06T10:42:45;9.90;99.90
27759;DHT22;15148;48.972;12.794;2022-11-06T10:47:57;9.70;99.90
27759;DHT22;15148;48.972;12.794;2022-11-06T10:53:06;9.60;99.90
27759;DHT22;15148;48.972;12.794;2022-11-06T10:58:25;9.60;99.90
27759;DHT22;15148;48.972;12.794;2022-11-06T11:03:38;9.50;99.90
27759;DHT22;15148;48.972;12.794;2022-11-06T11:08:43;9.60;99.90
27759;DHT22;15148;48.972;12.794;2022-11-06T11:13:48;9.60;99.90
27759;DHT22;15148;48.972;12.794;2022-11-06T11:18:50;9.60;99.90
27759;DHT22;15148;48.972;12.794;2022-11-06T11:24:10;9.70;99.90
27759;DHT22;15148;48.972;12.794;2022-11-06T11:30:00;9.80;99.90
27759;DHT22;15148;48.972;12.794;2022-11-06T11:34:44;9.90;99.90
27759;DHT22;15148;48.972;12.794;2022-11-06T11:39:53;9.90;99.90
27759;DHT22;15148;48.972;12.794;2022-11-06T11:50:24;9.80;99.90
27759;DHT22;15148;48.972;12.794;2022-11-06T11:55:27;9.90;99.90
27759;DHT22;15148;48.972;12.794;2022-11-06T12:00:30;9.80;99.90
27759;DHT22;15148;48.972;12.794;2022-11-06T12:05:34;9.80;99.90
27759;DHT22;15148;48.972;12.794;2022-11-06T12:10:40;9.70;99.90
27759;DHT22;15148;48.972;12.794;2022-11-06T12:16:04;9.80;99.90
27759;DHT22;15148;48.972;12.794;2022-11-06T12:21:31;10.10;99.90
27759;DHT22;15148;48.972;12.794;2022-11-06T12:26:53;10.40;99.90
27759;DHT22;15148;48.972;12.794;2022-11-06T12:42:30;10.80;99.90
27759;DHT22;15148;48.972;12.794;2022-11-06T12:48:12;10.90;99.90
27759;DHT22;15148;48.972;12.794;2022-11-06T12:59:20;11.10;99.90
27759;DHT22;15148;48.972;12.794;2022-11-06T13:15:49;11.50;99.90
27759;DHT22;15148;48.972;12.794;2022-11-06T13:20:45;11.80;99.90
27759;DHT22;15148;48.972;12.794;2022-11-06T13:30:57;11.60;99.90
27759;DHT22;15148;48.972;12.794;2022-11-06T13:36:02;11.50;99.90
27759;DHT22;15148;48.972;12.794;2022-11-06T13:41:24;11.20;99.90
27759;DHT22;15148;48.972;12.794;2022-11-06T13:46:51;11.10;99.90
27759;DHT22;15148;48.972;12.794;2022-11-06T13:51:55;10.90;99.90
27759;DHT22;15148;48.972;12.794;2022-11-06T14:07:46;10.40;99.90
27759;DHT22;15148;48.972;12.794;2022-11-06T14:12:50;10.30;99.90
27759;DHT22;15148;48.972;12.794;2022-11-06T14:17:59;10.20;99.90
27759;DHT22;15148;48.972;12.794;2022-11-06T14:28:40;10.10;99.90
27759;DHT22;15148;48.972;12.794;2022-11-06T14:38:44;9.70;99.90
27759;DHT22;15148;48.972;12.794;2022-11-06T14:43:48;9.60;99.90
27759;DHT22;15148;48.972;12.794;2022-11-06T14:48:54;9.50;99.90
27759;DHT22;15148;48.972;12.794;2022-11-06T14:53:59;9.40;99.90
27759;DHT22;15148;48.972;12.794;2022-11-06T14:59:06;9.20;99.90
27759;DHT22;15148;48.972;12.794;2022-11-06T15:24:53;8.60;99.90
27759;DHT22;15148;48.972;12.794;2022-11-06T15:29:58;8.50;99.90
27759;DHT22;15148;48.972;12.794;2022-11-06T15:35:05;8.60;99.90
27759;DHT22;15148;48.972;12.794;2022-11-06T15:40:22;8.10;99.90
27759;DHT22;15148;48.972;12.794;2022-11-06T15:45:27;8.20;99.90
27759;DHT22;15148;48.972;12.794;2022-11-06T15:55:34;7.70;99.90
27759;DHT22;15148;48.972;12.794;2022-11-06T16:00:39;7.50;99.90
27759;DHT22;15148;48.972;12.794;2022-11-06T16:05:42;7.40;99.90
27759;DHT22;15148;48.972;12.794;2022-11-06T16:10:45;7.30;99.90
27759;DHT22;15148;48.972;12.794;2022-11-06T16:15:55;7.20;99.90
27759;DHT22;15148;48.972;12.794;2022-11-06T16:26:14;7.00;99.90
27759;DHT22;15148;48.972;12.794;2022-11-06T16:31:19;6.90;99.90
27759;DHT22;15148;48.972;12.794;2022-11-06T16:36:22;6.70;99.90
27759;DHT22;15148;48.972;12.794;2022-11-06T16:52:25;6.50;99.90
27759;DHT22;15148;48.972;12.794;2022-11-06T16:57:35;6.40;99.90
27759;DHT22;15148;48.972;12.794;2022-11-06T17:02:55;6.30;99.90
27759;DHT22;15148;48.972;12.794;2022-11-06T17:08:23;6.30;99.90
27759;DHT22;15148;48.972;12.794;2022-11-06T17:13:29;6.20;99.90
27759;DHT22;15148;48.972;12.794;2022-11-06T17:18:36;6.10;99.90
27759;DHT22;15148;48.972;12.794;2022-11-06T17:23:39;6.00;99.90
27759;DHT22;15148;48.972;12.794;2022-11-06T17:28:41;5.90;99.90
27759;DHT22;15148;48.972;12.794;2022-11-06T17:33:43;5.90;99.90
27759;DHT22;15148;48.972;12.794;2022-11-06T17:38:45;5.80;99.90
27759;DHT22;15148;48.972;12.794;2022-11-06T17:43:48;5.90;99.90
27759;DHT22;15148;48.972;12.794;2022-11-06T17:48:50;5.80;99.90
27759;DHT22;15148;48.972;12.794;2022-11-06T17:53:51;5.70;99.90
27759;DHT22;15148;48.972;12.794;2022-11-06T17:58:53;5.60;99.90
27759;DHT22;15148;48.972;12.794;2022-11-06T18:03:55;5.60;99.90
27759;DHT22;15148;48.972;12.794;2022-11-06T18:08:59;5.50;99.90
27759;DHT22;15148;48.972;12.794;2022-11-06T18:14:01;5.50;99.90
27759;DHT22;15148;48.972;12.794;2022-11-06T18:19:12;5.50;99.90
27759;DHT22;15148;48.972;12.794;2022-11-06T18:24:15;5.40;99.90
27759;DHT22;15148;48.972;12.794;2022-11-06T18:29:17;5.50;99.90
27759;DHT22;15148;48.972;12.794;2022-11-06T18:34:19;5.50;99.90
27759;DHT22;15148;48.972;12.794;2022-11-06T18:39:22;5.40;99.90
27759;DHT22;15148;48.972;12.794;2022-11-06T18:44:24;5.40;99.90
27759;DHT22;15148;48.972;12.794;2022-11-06T18:49:27;5.40;99.90
27759;DHT22;15148;48.972;12.794;2022-11-06T18:54:29;5.40;99.90
27759;DHT22;15148;48.972;12.794;2022-11-06T18:59:32;5.40;99.90
27759;DHT22;15148;48.972;12.794;2022-11-06T19:04:34;5.30;99.90
27759;DHT22;15148;48.972;12.794;2022-11-06T19:09:37;5.30;99.90
27759;DHT22;15148;48.972;12.794;2022-11-06T19:14:39;5.30;99.90
27759;DHT22;15148;48.972;12.794;2022-11-06T19:19:42;5.40;99.90
27759;DHT22;15148;48.972;12.794;2022-11-06T19:24:45;5.30;99.90
27759;DHT22;15148;48.972;12.794;2022-11-06T19:29:48;5.40;99.90
27759;DHT22;15148;48.972;12.794;2022-11-06T19:34:51;5.40;99.90
27759;DHT22;15148;48.972;12.794;2022-11-06T19:39:55;5.50;99.90
27759;DHT22;15148;48.972;12.794;2022-11-06T19:45:01;5.50;99.90
27759;DHT22;15148;48.972;12.794;2022-11-06T19:50:04;5.50;99.90
27759;DHT22;15148;48.972;12.794;2022-11-06T19:55:07;5.60;99.90
27759;DHT22;15148;48.972;12.794;2022-11-06T20:00:28;5.60;99.90
27759;DHT22;15148;48.972;12.794;2022-11-06T20:05:31;5.60;99.90
27759;DHT22;15148;48.972;12.794;2022-11-06T20:10:33;5.60;99.90
27759;DHT22;15148;48.972;12.794;2022-11-06T20:15:36;5.50;99.90
27759;DHT22;15148;48.972;12.794;2022-11-06T20:20:40;5.60;99.90
27759;DHT22;15148;48.972;12.794;2022-11-06T20:25:44;5.60;99.90
27759;DHT22;15148;48.972;12.794;2022-11-06T20:30:47;5.60;99.90
27759;DHT22;15148;48.972;12.794;2022-11-06T20:35:50;5.70;99.90
27759;DHT22;15148;48.972;12.794;2022-11-06T20:40:54;5.70;99.90
27759;DHT22;15148;48.972;12.794;2022-11-06T20:45:59;5.70;99.90
27759;DHT22;15148;48.972;12.794;2022-11-06T20:51:05;5.80;99.90
27759;DHT22;15148;48.972;12.794;2022-11-06T20:56:10;5.90;99.90
27759;DHT22;15148;48.972;12.794;2022-11-06T21:01:15;5.90;99.90
27759;DHT22;15148;48.972;12.794;2022-11-06T21:06:20;6.00;99.90
27759;DHT22;15148;48.972;12.794;2022-11-06T21:11:24;6.00;99.90
27759;DHT22;15148;48.972;12.794;2022-11-06T21:16:32;6.20;99.90
27759;DHT22;15148;48.972;12.794;2022-11-06T21:21:35;6.20;99.90
27759;DHT22;15148;48.972;12.794;2022-11-06T21:26:38;6.20;99.90
27759;DHT22;15148;48.972;12.794;2022-11-06T21:31:40;6.30;99.90
27759;DHT22;15148;48.972;12.794;2022-11-06T21:36:49;6.30;99.90
27759;DHT22;15148;48.972;12.794;2022-11-06T21:41:51;6.30;99.90
27759;DHT22;15148;48.972;12.794;2022-11-06T21:46:52;6.30;99.90
27759;DHT22;15148;48.972;12.794;2022-11-06T21:51:54;6.40;99.90
27759;DHT22;15148;48.972;12.794;2022-11-06T21:57:16;6.40;99.90
27759;DHT22;15148;48.972;12.794;2022-11-06T22:02:18;6.40;99.90
27759;DHT22;15148;48.972;12.794;2022-11-06T22:07:20;6.40;99.90
27759;DHT22;15148;48.972;12.794;2022-11-06T22:12:22;6.50;99.90
27759;DHT22;15148;48.972;12.794;2022-11-06T22:17:24;6.40;99.90
27759;DHT22;15148;48.972;12.794;2022-11-06T22:22:26;6.50;99.90
27759;DHT22;15148;48.972;12.794;2022-11-06T22:27:28;6.60;99.90
27759;DHT22;15148;48.972;12.794;2022-11-06T22:32:30;6.70;99.90
27759;DHT22;15148;48.972;12.794;2022-11-06T22:37:37;6.70;99.90
27759;DHT22;15148;48.972;12.794;2022-11-06T22:42:39;6.70;99.90
27759;DHT22;15148;48.972;12.794;2022-11-06T22:47:45;6.80;99.90
27759;DHT22;15148;48.972;12.794;2022-11-06T22:52:47;6.80;99.90
27759;DHT22;15148;48.972;12.794;2022-11-06T22:57:49;6.80;99.90
27759;DHT22;15148;48.972;12.794;2022-11-06T23:02:51;6.80;99.90
27759;DHT22;15148;48.972;12.794;2022-11-06T23:07:53;6.80;99.90
27759;DHT22;15148;48.972;12.794;2022-11-06T23:12:55;6.90;99.90
27759;DHT22;15148;48.972;12.794;2022-11-06T23:17:59;6.80;99.90
27759;DHT22;15148;48.972;12.794;2022-11-06T23:23:01;6.90;99.90
27759;DHT22;15148;48.972;12.794;2022-11-06T23:28:04;6.90;99.90
27759;DHT22;15148;48.972;12.794;2022-11-06T23:33:05;6.90;99.90
27759;DHT22;15148;48.972;12.794;2022-11-06T23:38:07;6.90;99.90
27759;DHT22;15148;48.972;12.794;2022-11-06T23:43:09;6.90;99.90
27759;DHT22;15148;48.972;12.794;2022-11-06T23:48:12;6.90;99.90
27759;DHT22;15148;48.972;12.794;2022-11-06T23:53:15;6.90;99.90
27759;DHT22;15148;48.972;12.794;2022-11-06T23:58:17;7.00;99.90
